sensor_id;sensor_type;location;lat;lon;timestamp;pressure;altitude;pressure_sealevel;temperature;humidity
62201;BME280;48197;42.732;27.192;2023-03-25T00:01:48;99572.94;;;3.74;100.00
62201;BME280;48197;42.732;27.192;2023-03-25T00:04:14;99569.63;;;3.65;100.00
62201;BME280;48197;42.732;27.192;2023-03-25T00:06:42;99572.81;;;3.67;100.00
62201;BME280;48197;42.732;27.192;2023-03-25T00:09:09;99573.22;;;3.69;100.00
62201;BME280;48197;42.732;27.192;2023-03-25T00:11:35;99562.66;;;3.67;100.00
62201;BME280;48197;42.732;27.192;2023-03-25T00:14:02;99565.88;;;3.73;100.00
62201;BME280;48197;42.732;27.192;2023-03-25T00:16:29;99557.03;;;3.80;100.00
62201;BME280;48197;42.732;27.192;2023-03-25T00:18:56;99561.75;;;3.83;100.00
62201;BME280;48197;42.732;27.192;2023-03-25T00:21:24;99561.03;;;3.86;100.00
62201;BME280;48197;42.732;27.192;2023-03-25T00:23:51;99552.22;;;3.96;100.00
62201;BME280;48197;42.732;27.192;2023-03-25T00:26:17;99551.81;;;3.94;100.00
62201;BME280;48197;42.732;27.192;2023-03-25T00:28:43;99558.19;;;4.02;100.00
62201;BME280;48197;42.732;27.192;2023-03-25T00:31:11;99548.56;;;4.12;100.00
62201;BME280;48197;42.732;27.192;2023-03-25T00:33:37;99555.03;;;4.00;100.00
62201;BME280;48197;42.732;27.192;2023-03-25T00:36:06;99552.91;;;3.89;100.00
62201;BME280;48197;42.732;27.192;2023-03-25T00:38:34;99548.63;;;3.92;100.00
62201;BME280;48197;42.732;27.192;2023-03-25T00:41:18;99542.28;;;3.84;100.00
62201;BME280;48197;42.732;27.192;2023-03-25T00:43:54;99543.91;;;3.89;100.00
62201;BME280;48197;42.732;27.192;2023-03-25T00:46:21;99534.50;;;3.86;100.00
62201;BME280;48197;42.732;27.192;2023-03-25T00:48:48;99533.63;;;3.82;100.00
62201;BME280;48197;42.732;27.192;2023-03-25T00:51:15;99532.53;;;3.87;100.00
62201;BME280;48197;42.732;27.192;2023-03-25T00:53:54;99527.56;;;3.93;100.00
62201;BME280;48197;42.732;27.192;2023-03-25T00:56:22;99532.31;;;3.96;100.00
62201;BME280;48197;42.732;27.192;2023-03-25T00:58:49;99527.06;;;3.87;100.00
62201;BME280;48197;42.732;27.192;2023-03-25T01:01:19;99520.75;;;3.83;100.00
62201;BME280;48197;42.732;27.192;2023-03-25T01:03:49;99490.22;;;3.58;100.00
62201;BME280;48197;42.732;27.192;2023-03-25T01:06:25;99520.25;;;3.77;100.00
62201;BME280;48197;42.732;27.192;2023-03-25T01:08:55;99513.56;;;3.75;100.00
62201;BME280;48197;42.732;27.192;2023-03-25T01:11:24;99515.53;;;3.74;100.00
62201;BME280;48197;42.732;27.192;2023-03-25T01:13:52;99521.50;;;3.80;100.00
62201;BME280;48197;42.732;27.192;2023-03-25T01:16:19;99515.63;;;3.81;100.00
62201;BME280;48197;42.732;27.192;2023-03-25T01:18:46;99512.88;;;3.78;100.00
62201;BME280;48197;42.732;27.192;2023-03-25T01:21:12;99515.16;;;3.76;100.00
62201;BME280;48197;42.732;27.192;2023-03-25T01:23:39;99514.34;;;3.75;100.00
62201;BME280;48197;42.732;27.192;2023-03-25T01:26:06;99516.72;;;3.77;100.00
62201;BME280;48197;42.732;27.192;2023-03-25T01:28:33;99511.69;;;3.79;100.00
62201;BME280;48197;42.732;27.192;2023-03-25T01:31:00;99508.66;;;3.61;100.00
62201;BME280;48197;42.732;27.192;2023-03-25T01:33:27;99500.09;;;3.43;100.00
62201;BME280;48197;42.732;27.192;2023-03-25T01:35:53;99494.09;;;3.34;100.00
62201;BME280;48197;42.732;27.192;2023-03-25T01:38:19;99495.31;;;3.36;100.00
62201;BME280;48197;42.732;27.192;2023-03-25T01:40:46;99489.91;;;3.40;100.00
62201;BME280;48197;42.732;27.192;2023-03-25T01:43:12;99488.94;;;3.52;100.00
62201;BME280;48197;42.732;27.192;2023-03-25T01:45:40;99488.91;;;3.48;100.00
62201;BME280;48197;42.732;27.192;2023-03-25T01:48:08;99478.59;;;3.41;100.00
62201;BME280;48197;42.732;27.192;2023-03-25T01:50:37;99481.94;;;3.31;100.00
62201;BME280;48197;42.732;27.192;2023-03-25T01:53:06;99482.00;;;3.15;100.00
62201;BME280;48197;42.732;27.192;2023-03-25T01:55:34;99478.28;;;3.04;100.00
62201;BME280;48197;42.732;27.192;2023-03-25T01:58:03;99475.03;;;2.98;100.00
62201;BME280;48197;42.732;27.192;2023-03-25T02:00:30;99472.75;;;3.00;100.00
62201;BME280;48197;42.732;27.192;2023-03-25T02:02:57;99466.28;;;3.09;100.00
62201;BME280;48197;42.732;27.192;2023-03-25T02:06:08;99461.59;;;3.09;100.00
62201;BME280;48197;42.732;27.192;2023-03-25T02:08:14;99462.47;;;3.13;100.00
62201;BME280;48197;42.732;27.192;2023-03-25T02:10:43;99456.66;;;3.15;100.00
62201;BME280;48197;42.732;27.192;2023-03-25T02:13:10;99459.38;;;3.15;100.00
62201;BME280;48197;42.732;27.192;2023-03-25T02:15:49;99460.25;;;3.19;100.00
62201;BME280;48197;42.732;27.192;2023-03-25T02:18:25;99462.53;;;3.17;100.00
62201;BME280;48197;42.732;27.192;2023-03-25T02:21:03;99470.44;;;3.02;100.00
62201;BME280;48197;42.732;27.192;2023-03-25T02:28:43;99452.56;;;2.85;100.00
62201;BME280;48197;42.732;27.192;2023-03-25T02:36:39;99443.88;;;2.60;100.00
62201;BME280;48197;42.732;27.192;2023-03-25T02:39:12;99451.75;;;2.65;100.00
62201;BME280;48197;42.732;27.192;2023-03-25T02:41:42;99450.16;;;2.64;100.00
62201;BME280;48197;42.732;27.192;2023-03-25T02:44:30;99445.09;;;2.63;100.00
62201;BME280;48197;42.732;27.192;2023-03-25T02:47:01;99444.00;;;2.48;100.00
62201;BME280;48197;42.732;27.192;2023-03-25T02:49:29;99435.28;;;2.42;100.00
62201;BME280;48197;42.732;27.192;2023-03-25T02:54:53;99436.28;;;2.54;100.00
62201;BME280;48197;42.732;27.192;2023-03-25T02:57:26;99430.00;;;2.69;100.00
62201;BME280;48197;42.732;27.192;2023-03-25T02:59:53;99422.69;;;2.73;100.00
62201;BME280;48197;42.732;27.192;2023-03-25T03:02:21;99426.41;;;2.65;100.00
62201;BME280;48197;42.732;27.192;2023-03-25T03:04:51;99424.69;;;2.57;100.00
62201;BME280;48197;42.732;27.192;2023-03-25T03:07:24;99421.09;;;2.53;100.00
62201;BME280;48197;42.732;27.192;2023-03-25T03:09:56;99422.47;;;2.62;100.00
62201;BME280;48197;42.732;27.192;2023-03-25T03:12:37;99427.72;;;2.71;100.00
62201;BME280;48197;42.732;27.192;2023-03-25T03:21:31;99421.22;;;2.79;100.00
62201;BME280;48197;42.732;27.192;2023-03-25T03:23:33;99416.06;;;2.74;100.00
62201;BME280;48197;42.732;27.192;2023-03-25T03:26:10;99427.06;;;2.78;100.00
62201;BME280;48197;42.732;27.192;2023-03-25T03:28:46;99423.47;;;2.74;100.00
62201;BME280;48197;42.732;27.192;2023-03-25T03:31:19;99427.22;;;2.65;100.00
62201;BME280;48197;42.732;27.192;2023-03-25T03:33:51;99428.63;;;2.59;100.00
62201;BME280;48197;42.732;27.192;2023-03-25T03:36:19;99423.09;;;2.56;100.00
62201;BME280;48197;42.732;27.192;2023-03-25T03:38:52;99428.94;;;2.54;100.00
62201;BME280;48197;42.732;27.192;2023-03-25T03:41:22;99422.19;;;2.68;100.00
62201;BME280;48197;42.732;27.192;2023-03-25T03:43:53;99420.41;;;2.75;100.00
62201;BME280;48197;42.732;27.192;2023-03-25T03:46:22;99424.19;;;2.71;100.00
62201;BME280;48197;42.732;27.192;2023-03-25T03:48:53;99416.22;;;2.62;100.00
62201;BME280;48197;42.732;27.192;2023-03-25T03:51:30;99420.88;;;2.61;100.00
62201;BME280;48197;42.732;27.192;2023-03-25T03:53:58;99425.59;;;2.64;100.00
62201;BME280;48197;42.732;27.192;2023-03-25T03:56:34;99416.94;;;2.59;100.00
62201;BME280;48197;42.732;27.192;2023-03-25T03:59:06;99418.00;;;2.54;100.00
62201;BME280;48197;42.732;27.192;2023-03-25T04:01:43;99416.50;;;2.57;100.00
62201;BME280;48197;42.732;27.192;2023-03-25T04:04:21;99420.16;;;2.64;100.00
62201;BME280;48197;42.732;27.192;2023-03-25T04:07:13;99425.22;;;2.62;100.00
62201;BME280;48197;42.732;27.192;2023-03-25T04:12:33;99415.41;;;2.42;100.00
62201;BME280;48197;42.732;27.192;2023-03-25T04:15:04;99418.91;;;2.42;100.00
62201;BME280;48197;42.732;27.192;2023-03-25T04:17:31;99414.84;;;2.52;100.00
62201;BME280;48197;42.732;27.192;2023-03-25T04:20:00;99410.97;;;2.53;100.00
62201;BME280;48197;42.732;27.192;2023-03-25T04:22:32;99415.72;;;2.56;100.00
62201;BME280;48197;42.732;27.192;2023-03-25T04:24:58;99417.72;;;2.59;100.00
62201;BME280;48197;42.732;27.192;2023-03-25T04:27:26;99410.84;;;2.65;100.00
62201;BME280;48197;42.732;27.192;2023-03-25T04:29:57;99413.34;;;2.74;100.00
62201;BME280;48197;42.732;27.192;2023-03-25T04:32:23;99411.63;;;2.85;100.00
62201;BME280;48197;42.732;27.192;2023-03-25T04:34:53;99418.13;;;3.00;100.00
62201;BME280;48197;42.732;27.192;2023-03-25T04:37:23;99414.03;;;3.10;100.00
62201;BME280;48197;42.732;27.192;2023-03-25T04:39:50;99425.16;;;3.21;100.00
62201;BME280;48197;42.732;27.192;2023-03-25T04:42:18;99414.94;;;3.37;100.00
62201;BME280;48197;42.732;27.192;2023-03-25T04:44:45;99412.50;;;3.55;100.00
62201;BME280;48197;42.732;27.192;2023-03-25T04:47:14;99418.50;;;3.87;100.00
62201;BME280;48197;42.732;27.192;2023-03-25T04:49:43;99418.63;;;4.21;100.00
62201;BME280;48197;42.732;27.192;2023-03-25T04:52:10;99414.72;;;4.22;100.00
62201;BME280;48197;42.732;27.192;2023-03-25T04:54:37;99418.13;;;4.16;100.00
62201;BME280;48197;42.732;27.192;2023-03-25T04:57:05;99417.78;;;4.17;100.00
62201;BME280;48197;42.732;27.192;2023-03-25T04:59:34;99402.22;;;4.52;100.00
62201;BME280;48197;42.732;27.192;2023-03-25T05:02:01;99403.78;;;4.83;100.00
62201;BME280;48197;42.732;27.192;2023-03-25T05:04:27;99407.59;;;5.08;100.00
62201;BME280;48197;42.732;27.192;2023-03-25T05:06:54;99415.88;;;5.57;100.00
62201;BME280;48197;42.732;27.192;2023-03-25T05:09:22;99412.72;;;5.99;100.00
62201;BME280;48197;42.732;27.192;2023-03-25T05:11:50;99417.06;;;6.04;100.00
62201;BME280;48197;42.732;27.192;2023-03-25T05:14:18;99426.84;;;6.01;100.00
62201;BME280;48197;42.732;27.192;2023-03-25T05:16:45;99427.25;;;6.00;100.00
62201;BME280;48197;42.732;27.192;2023-03-25T05:19:12;99426.84;;;6.01;100.00
62201;BME280;48197;42.732;27.192;2023-03-25T05:21:40;99417.16;;;6.18;100.00
62201;BME280;48197;42.732;27.192;2023-03-25T05:24:07;99411.78;;;6.32;100.00
62201;BME280;48197;42.732;27.192;2023-03-25T05:26:35;99414.66;;;6.54;100.00
62201;BME280;48197;42.732;27.192;2023-03-25T05:29:03;99419.56;;;7.14;100.00
62201;BME280;48197;42.732;27.192;2023-03-25T05:31:30;99421.66;;;8.11;100.00
62201;BME280;48197;42.732;27.192;2023-03-25T05:33:57;99421.81;;;8.95;100.00
62201;BME280;48197;42.732;27.192;2023-03-25T05:36:24;99418.44;;;9.36;100.00
62201;BME280;48197;42.732;27.192;2023-03-25T05:38:52;99413.22;;;9.53;100.00
62201;BME280;48197;42.732;27.192;2023-03-25T05:41:21;99418.06;;;9.38;100.00
62201;BME280;48197;42.732;27.192;2023-03-25T05:43:58;99422.16;;;9.08;100.00
62201;BME280;48197;42.732;27.192;2023-03-25T05:46:26;99416.69;;;8.97;100.00
62201;BME280;48197;42.732;27.192;2023-03-25T05:48:53;99418.56;;;9.22;100.00
62201;BME280;48197;42.732;27.192;2023-03-25T05:51:20;99421.13;;;9.54;100.00
62201;BME280;48197;42.732;27.192;2023-03-25T05:53:47;99409.06;;;9.82;100.00
62201;BME280;48197;42.732;27.192;2023-03-25T05:56:17;99403.84;;;9.92;100.00
62201;BME280;48197;42.732;27.192;2023-03-25T05:58:48;99403.13;;;10.33;100.00
62201;BME280;48197;42.732;27.192;2023-03-25T06:01:13;99404.63;;;11.06;100.00
62201;BME280;48197;42.732;27.192;2023-03-25T06:03:41;99400.88;;;11.47;100.00
62201;BME280;48197;42.732;27.192;2023-03-25T06:06:08;99401.19;;;11.26;100.00
62201;BME280;48197;42.732;27.192;2023-03-25T06:08:39;99397.19;;;10.69;100.00
62201;BME280;48197;42.732;27.192;2023-03-25T06:11:07;99401.78;;;10.48;100.00
62201;BME280;48197;42.732;27.192;2023-03-25T06:13:34;99405.22;;;11.21;100.00
62201;BME280;48197;42.732;27.192;2023-03-25T06:16:03;99414.06;;;12.14;100.00
62201;BME280;48197;42.732;27.192;2023-03-25T06:18:31;99410.41;;;12.20;100.00
62201;BME280;48197;42.732;27.192;2023-03-25T06:20:57;99413.00;;;12.08;100.00
62201;BME280;48197;42.732;27.192;2023-03-25T06:23:24;99408.91;;;12.16;100.00
62201;BME280;48197;42.732;27.192;2023-03-25T06:25:51;99412.00;;;12.41;100.00
62201;BME280;48197;42.732;27.192;2023-03-25T06:28:18;99419.19;;;12.99;100.00
62201;BME280;48197;42.732;27.192;2023-03-25T06:30:45;99406.09;;;13.88;100.00
62201;BME280;48197;42.732;27.192;2023-03-25T06:33:11;99401.66;;;14.95;100.00
62201;BME280;48197;42.732;27.192;2023-03-25T06:35:39;99395.03;;;15.44;100.00
62201;BME280;48197;42.732;27.192;2023-03-25T06:38:08;99408.31;;;15.52;100.00
62201;BME280;48197;42.732;27.192;2023-03-25T06:40:38;99410.53;;;15.19;100.00
62201;BME280;48197;42.732;27.192;2023-03-25T06:48:51;99413.53;;;13.42;100.00
62201;BME280;48197;42.732;27.192;2023-03-25T06:51:18;99409.75;;;14.47;100.00
62201;BME280;48197;42.732;27.192;2023-03-25T06:53:47;99411.09;;;14.85;100.00
62201;BME280;48197;42.732;27.192;2023-03-25T06:56:14;99411.81;;;15.02;100.00
62201;BME280;48197;42.732;27.192;2023-03-25T06:58:40;99412.69;;;14.86;100.00
62201;BME280;48197;42.732;27.192;2023-03-25T07:01:07;99408.38;;;14.23;100.00
62201;BME280;48197;42.732;27.192;2023-03-25T07:03:34;99418.75;;;13.57;100.00
62201;BME280;48197;42.732;27.192;2023-03-25T07:06:01;99419.53;;;13.21;100.00
62201;BME280;48197;42.732;27.192;2023-03-25T07:08:28;99417.47;;;13.05;100.00
62201;BME280;48197;42.732;27.192;2023-03-25T07:10:59;99425.09;;;13.57;100.00
62201;BME280;48197;42.732;27.192;2023-03-25T07:13:27;99415.38;;;14.44;100.00
62201;BME280;48197;42.732;27.192;2023-03-25T07:15:56;99415.88;;;15.39;100.00
62201;BME280;48197;42.732;27.192;2023-03-25T07:18:22;99408.03;;;16.11;100.00
62201;BME280;48197;42.732;27.192;2023-03-25T07:20:48;99401.81;;;16.64;98.63
62201;BME280;48197;42.732;27.192;2023-03-25T07:23:15;99407.34;;;16.99;97.49
62201;BME280;48197;42.732;27.192;2023-03-25T07:25:41;99409.47;;;17.48;95.05
62201;BME280;48197;42.732;27.192;2023-03-25T07:28:08;99405.19;;;17.74;94.48
62201;BME280;48197;42.732;27.192;2023-03-25T07:30:35;99412.78;;;18.05;92.16
62201;BME280;48197;42.732;27.192;2023-03-25T07:33:01;99398.03;;;18.42;91.52
62201;BME280;48197;42.732;27.192;2023-03-25T07:35:36;99402.84;;;18.23;93.59
62201;BME280;48197;42.732;27.192;2023-03-25T07:38:03;99383.72;;;18.58;91.73
62201;BME280;48197;42.732;27.192;2023-03-25T07:40:30;99395.50;;;19.08;92.04
62201;BME280;48197;42.732;27.192;2023-03-25T07:42:56;99391.81;;;19.69;90.95
62201;BME280;48197;42.732;27.192;2023-03-25T07:45:23;99394.97;;;19.62;84.37
62201;BME280;48197;42.732;27.192;2023-03-25T07:47:50;99393.09;;;19.25;81.07
62201;BME280;48197;42.732;27.192;2023-03-25T07:50:18;99397.94;;;19.15;82.59
62201;BME280;48197;42.732;27.192;2023-03-25T07:52:46;99389.03;;;19.35;85.38
62201;BME280;48197;42.732;27.192;2023-03-25T07:55:12;99386.31;;;19.50;82.76
62201;BME280;48197;42.732;27.192;2023-03-25T07:57:39;99389.44;;;19.43;84.32
62201;BME280;48197;42.732;27.192;2023-03-25T08:00:10;99391.63;;;19.39;83.69
62201;BME280;48197;42.732;27.192;2023-03-25T08:02:37;99383.78;;;19.19;78.97
62201;BME280;48197;42.732;27.192;2023-03-25T08:05:05;99381.56;;;19.32;84.07
62201;BME280;48197;42.732;27.192;2023-03-25T08:07:32;99374.59;;;19.52;80.96
62201;BME280;48197;42.732;27.192;2023-03-25T08:09:58;99369.47;;;19.84;80.87
62201;BME280;48197;42.732;27.192;2023-03-25T08:12:25;99370.16;;;19.69;79.25
62201;BME280;48197;42.732;27.192;2023-03-25T08:14:51;99366.44;;;19.96;80.77
62201;BME280;48197;42.732;27.192;2023-03-25T08:17:18;99364.84;;;19.81;74.05
62201;BME280;48197;42.732;27.192;2023-03-25T08:19:46;99358.53;;;19.28;73.80
62201;BME280;48197;42.732;27.192;2023-03-25T08:22:13;99359.56;;;19.40;78.38
62201;BME280;48197;42.732;27.192;2023-03-25T08:24:40;99352.03;;;19.89;75.48
62201;BME280;48197;42.732;27.192;2023-03-25T08:27:07;99350.25;;;20.15;76.90
62201;BME280;48197;42.732;27.192;2023-03-25T08:29:34;99347.88;;;19.99;75.15
62201;BME280;48197;42.732;27.192;2023-03-25T08:32:00;99352.25;;;19.76;78.86
62201;BME280;48197;42.732;27.192;2023-03-25T08:34:27;99351.34;;;19.94;76.67
62201;BME280;48197;42.732;27.192;2023-03-25T08:36:54;99344.31;;;19.98;74.24
62201;BME280;48197;42.732;27.192;2023-03-25T08:39:21;99341.97;;;19.97;76.91
62201;BME280;48197;42.732;27.192;2023-03-25T08:41:55;99336.09;;;20.10;74.59
62201;BME280;48197;42.732;27.192;2023-03-25T08:44:24;99335.19;;;19.89;72.21
62201;BME280;48197;42.732;27.192;2023-03-25T08:46:51;99335.00;;;19.92;73.41
62201;BME280;48197;42.732;27.192;2023-03-25T08:49:17;99330.75;;;19.97;72.53
62201;BME280;48197;42.732;27.192;2023-03-25T08:51:44;99336.34;;;19.97;75.18
62201;BME280;48197;42.732;27.192;2023-03-25T08:54:11;99327.22;;;20.11;74.78
62201;BME280;48197;42.732;27.192;2023-03-25T08:56:37;99326.78;;;20.28;73.99
62201;BME280;48197;42.732;27.192;2023-03-25T08:59:03;99314.88;;;19.94;74.89
62201;BME280;48197;42.732;27.192;2023-03-25T09:01:30;99319.44;;;19.91;73.76
62201;BME280;48197;42.732;27.192;2023-03-25T09:03:56;99316.38;;;20.04;73.46
62201;BME280;48197;42.732;27.192;2023-03-25T09:06:22;99316.78;;;20.27;73.58
62201;BME280;48197;42.732;27.192;2023-03-25T09:08:49;99319.50;;;20.21;73.04
62201;BME280;48197;42.732;27.192;2023-03-25T09:11:15;99313.78;;;20.15;71.26
62201;BME280;48197;42.732;27.192;2023-03-25T09:13:42;99310.38;;;19.72;72.51
62201;BME280;48197;42.732;27.192;2023-03-25T09:16:09;99306.44;;;19.46;74.09
62201;BME280;48197;42.732;27.192;2023-03-25T09:18:36;99296.50;;;19.11;71.66
62201;BME280;48197;42.732;27.192;2023-03-25T09:21:03;99290.69;;;18.91;73.94
62201;BME280;48197;42.732;27.192;2023-03-25T09:23:34;99298.88;;;19.04;75.99
62201;BME280;48197;42.732;27.192;2023-03-25T09:26:05;99293.16;;;19.31;71.00
62201;BME280;48197;42.732;27.192;2023-03-25T09:28:32;99293.22;;;19.13;71.17
62201;BME280;48197;42.732;27.192;2023-03-25T09:30:59;99293.09;;;19.07;74.54
62201;BME280;48197;42.732;27.192;2023-03-25T09:33:29;99287.03;;;19.09;71.64
62201;BME280;48197;42.732;27.192;2023-03-25T09:35:55;99285.06;;;19.24;75.29
62201;BME280;48197;42.732;27.192;2023-03-25T09:38:22;99283.09;;;19.49;73.37
62201;BME280;48197;42.732;27.192;2023-03-25T10:09:21;99237.06;;;19.41;73.02
62201;BME280;48197;42.732;27.192;2023-03-25T10:14:23;99222.91;;;19.59;69.47
62201;BME280;48197;42.732;27.192;2023-03-25T10:19:42;99224.34;;;19.78;68.28
62201;BME280;48197;42.732;27.192;2023-03-25T10:22:22;99213.66;;;20.07;69.03
62201;BME280;48197;42.732;27.192;2023-03-25T10:25:00;99210.91;;;19.83;67.00
62201;BME280;48197;42.732;27.192;2023-03-25T10:27:33;99194.44;;;20.14;66.46
62201;BME280;48197;42.732;27.192;2023-03-25T10:30:09;99190.94;;;20.34;67.62
62201;BME280;48197;42.732;27.192;2023-03-25T10:32:39;99188.97;;;20.70;65.68
62201;BME280;48197;42.732;27.192;2023-03-25T10:35:08;99179.69;;;20.64;65.81
62201;BME280;48197;42.732;27.192;2023-03-25T10:37:38;99176.69;;;20.68;64.31
62201;BME280;48197;42.732;27.192;2023-03-25T10:42:54;99164.28;;;20.74;56.45
62201;BME280;48197;42.732;27.192;2023-03-25T10:45:23;99166.28;;;20.74;57.29
62201;BME280;48197;42.732;27.192;2023-03-25T10:47:52;99167.25;;;20.86;56.57
62201;BME280;48197;42.732;27.192;2023-03-25T10:50:20;99162.03;;;20.78;56.05
62201;BME280;48197;42.732;27.192;2023-03-25T10:52:47;99154.00;;;20.71;56.56
62201;BME280;48197;42.732;27.192;2023-03-25T10:55:30;99156.81;;;20.56;55.23
62201;BME280;48197;42.732;27.192;2023-03-25T10:57:57;99152.97;;;20.69;57.22
62201;BME280;48197;42.732;27.192;2023-03-25T11:00:24;99142.53;;;20.90;56.57
62201;BME280;48197;42.732;27.192;2023-03-25T11:02:52;99145.22;;;21.19;54.50
62201;BME280;48197;42.732;27.192;2023-03-25T11:05:21;99129.75;;;21.50;54.64
62201;BME280;48197;42.732;27.192;2023-03-25T11:07:54;99109.81;;;21.48;52.15
62201;BME280;48197;42.732;27.192;2023-03-25T11:10:23;99118.09;;;21.84;53.34
62201;BME280;48197;42.732;27.192;2023-03-25T11:12:54;99117.25;;;22.03;53.20
62201;BME280;48197;42.732;27.192;2023-03-25T11:15:32;99114.50;;;22.41;53.11
62201;BME280;48197;42.732;27.192;2023-03-25T11:18:03;99105.81;;;22.45;52.23
62201;BME280;48197;42.732;27.192;2023-03-25T11:20:44;99103.31;;;22.52;52.14
62201;BME280;48197;42.732;27.192;2023-03-25T11:25:55;99085.69;;;23.06;50.24
62201;BME280;48197;42.732;27.192;2023-03-25T11:28:37;99084.25;;;23.33;49.42
62201;BME280;48197;42.732;27.192;2023-03-25T11:31:15;99092.50;;;22.88;47.29
62201;BME280;48197;42.732;27.192;2023-03-25T11:33:45;99079.69;;;22.87;47.74
62201;BME280;48197;42.732;27.192;2023-03-25T11:36:23;99073.25;;;22.75;47.27
62201;BME280;48197;42.732;27.192;2023-03-25T11:38:51;99073.16;;;23.07;46.67
62201;BME280;48197;42.732;27.192;2023-03-25T11:41:21;99070.34;;;23.07;44.55
62201;BME280;48197;42.732;27.192;2023-03-25T11:43:48;99065.91;;;22.95;44.56
62201;BME280;48197;42.732;27.192;2023-03-25T11:46:16;99067.38;;;22.84;44.41
62201;BME280;48197;42.732;27.192;2023-03-25T11:48:44;99066.50;;;23.05;45.52
62201;BME280;48197;42.732;27.192;2023-03-25T11:51:19;99053.88;;;22.94;45.03
62201;BME280;48197;42.732;27.192;2023-03-25T11:54:28;99051.44;;;23.24;44.71
62201;BME280;48197;42.732;27.192;2023-03-25T11:56:39;99045.06;;;23.47;43.42
62201;BME280;48197;42.732;27.192;2023-03-25T11:59:24;99050.47;;;23.56;44.84
62201;BME280;48197;42.732;27.192;2023-03-25T12:01:59;99048.19;;;23.71;43.38
62201;BME280;48197;42.732;27.192;2023-03-25T12:04:26;99042.03;;;23.67;42.76
62201;BME280;48197;42.732;27.192;2023-03-25T12:06:53;99041.25;;;23.72;42.01
62201;BME280;48197;42.732;27.192;2023-03-25T12:09:20;99039.00;;;23.88;41.88
62201;BME280;48197;42.732;27.192;2023-03-25T12:14:23;99035.13;;;24.13;42.40
62201;BME280;48197;42.732;27.192;2023-03-25T12:22:09;99027.41;;;24.08;39.79
62201;BME280;48197;42.732;27.192;2023-03-25T12:37:53;99007.31;;;25.21;38.12
62201;BME280;48197;42.732;27.192;2023-03-25T12:40:27;99012.50;;;25.05;38.58
62201;BME280;48197;42.732;27.192;2023-03-25T12:43:04;99004.97;;;25.19;37.61
62201;BME280;48197;42.732;27.192;2023-03-25T12:50:53;98988.28;;;25.87;35.87
62201;BME280;48197;42.732;27.192;2023-03-25T12:53:35;98989.78;;;26.43;36.26
62201;BME280;48197;42.732;27.192;2023-03-25T12:56:17;98989.31;;;26.39;38.27
62201;BME280;48197;42.732;27.192;2023-03-25T12:59:02;98988.69;;;26.27;39.75
62201;BME280;48197;42.732;27.192;2023-03-25T13:01:35;98983.97;;;26.11;40.15
62201;BME280;48197;42.732;27.192;2023-03-25T13:06:56;98971.53;;;25.29;41.42
62201;BME280;48197;42.732;27.192;2023-03-25T13:09:49;98977.59;;;24.97;41.94
62201;BME280;48197;42.732;27.192;2023-03-25T13:17:45;98969.28;;;24.58;43.70
62201;BME280;48197;42.732;27.192;2023-03-25T13:20:13;98975.25;;;24.49;44.01
62201;BME280;48197;42.732;27.192;2023-03-25T13:22:41;98972.09;;;24.63;43.64
62201;BME280;48197;42.732;27.192;2023-03-25T13:25:17;98969.16;;;24.92;43.99
62201;BME280;48197;42.732;27.192;2023-03-25T13:27:47;98962.16;;;24.98;42.66
62201;BME280;48197;42.732;27.192;2023-03-25T13:30:26;98974.28;;;24.93;42.83
62201;BME280;48197;42.732;27.192;2023-03-25T13:32:55;98966.84;;;24.90;43.06
62201;BME280;48197;42.732;27.192;2023-03-25T13:38:15;98966.63;;;24.01;43.82
62201;BME280;48197;42.732;27.192;2023-03-25T13:40:50;98958.66;;;23.72;44.60
62201;BME280;48197;42.732;27.192;2023-03-25T13:43:27;98954.81;;;23.47;44.68
62201;BME280;48197;42.732;27.192;2023-03-25T13:46:02;98957.13;;;23.20;45.55
62201;BME280;48197;42.732;27.192;2023-03-25T13:51:30;98958.13;;;23.11;45.72
62201;BME280;48197;42.732;27.192;2023-03-25T13:54:19;98956.59;;;23.10;45.93
62201;BME280;48197;42.732;27.192;2023-03-25T14:12:44;98955.19;;;20.96;50.35
62201;BME280;48197;42.732;27.192;2023-03-25T14:15:19;98944.28;;;20.36;51.74
62201;BME280;48197;42.732;27.192;2023-03-25T14:17:46;98956.84;;;19.70;53.88
62201;BME280;48197;42.732;27.192;2023-03-25T14:20:16;98955.09;;;19.28;55.54
62201;BME280;48197;42.732;27.192;2023-03-25T14:22:46;98961.50;;;19.29;56.77
62201;BME280;48197;42.732;27.192;2023-03-25T14:25:21;98960.88;;;19.69;55.62
62201;BME280;48197;42.732;27.192;2023-03-25T14:27:52;98960.16;;;20.25;54.27
62201;BME280;48197;42.732;27.192;2023-03-25T14:30:20;98955.47;;;21.24;51.81
62201;BME280;48197;42.732;27.192;2023-03-25T14:32:48;98959.16;;;21.99;49.55
62201;BME280;48197;42.732;27.192;2023-03-25T14:48:52;98956.16;;;20.93;50.28
62201;BME280;48197;42.732;27.192;2023-03-25T14:54:03;98956.72;;;19.65;54.09
62201;BME280;48197;42.732;27.192;2023-03-25T14:56:57;98959.47;;;20.09;53.70
62201;BME280;48197;42.732;27.192;2023-03-25T14:59:30;98948.81;;;20.54;52.47
62201;BME280;48197;42.732;27.192;2023-03-25T15:02:02;98955.69;;;20.74;51.91
62201;BME280;48197;42.732;27.192;2023-03-25T15:04:32;98953.53;;;20.63;51.97
62201;BME280;48197;42.732;27.192;2023-03-25T15:07:01;98951.56;;;20.69;51.37
62201;BME280;48197;42.732;27.192;2023-03-25T15:09:28;98947.19;;;20.89;51.27
62201;BME280;48197;42.732;27.192;2023-03-25T15:11:57;98950.69;;;21.04;51.04
62201;BME280;48197;42.732;27.192;2023-03-25T15:14:27;98955.97;;;20.76;50.74
62201;BME280;48197;42.732;27.192;2023-03-25T15:17:01;98945.50;;;20.35;51.30
62201;BME280;48197;42.732;27.192;2023-03-25T15:19:28;98955.47;;;20.16;52.21
62201;BME280;48197;42.732;27.192;2023-03-25T15:26:55;98966.69;;;19.51;52.74